Terminal Aerodrome Forecast
Issued by NWS

Current Version | Previous Version | Text Only | Print | Product List | Glossary Off
Versions: 1 2 3 4 5 6 7 8 9 10 11 12 13 14 15 16 17 18 19 20 21 22 23 24

000
FTUS41 KPBZ 241700
TAFMGW
TAF
KMGW 241736Z 2418/2518 21017G40KT P6SM BKN070
     FM242100 23014G30KT P6SM BKN050
     FM250500 23010G20KT P6SM BKN035=

USA.gov is the U.S. government's official web portal to all federal, state and local government web resources and services.